Main page
METAR-TAF:

METAR-TAF

Airports :

RAF Leeming

Leeming, England

latitude: 54-18N, longitude: 001-32W, elevation: 40 m

Current weather observation

The report was made 1 hour and 19 minutes ago, at 21:50 UTC
Wind 8 kt from the West/Southwest
Temperature 12°C
Humidity 71%
Pressure 1012 hPa
Visibility 10 km or more

METAR: EGXE 252150Z AUTO 25008KT 9999 FEW060/// 12/07 Q1012

Time: 00:09 (23:09 UTC)

Forecast

The report was made 9 hours and 18 minutes ago, at 13:51 UTC
Forecast valid from 25 at 15 UTC to 25 at 18 UTC
Wind 15 kt from the West/Southwest
Visibility 10 km or more
Few clouds at a height of 2800 ft
Broken clouds at a height of 4500 ft
Temporary
from 25 at 15 UTC to 25 at 18 UTC
Wind 19 kt from the West/Southwest with gusts up to 29 kt

TAF: EGXE 251351Z 2515/2518 25015KT 9999 FEW028 BKN045 TEMPO 2515/2518 25019G29KT

Weather observations and forecasts of more than 4000 airports (METAR and TAF reports).

The available stations are represented by yellow and red dots on the map.

Hover mouse over dot to see the name of the station.

Then click to see weather observations and forecasts.

To change the map : click on the green buttons with a black cross to zoom in, on the green button with a dash to zoom out, or on the green arrows for adjacent maps.


METAR-TAF: